Time;durP1;ratioP1;P1;durP2;ratioP2;P2;SDS_P1;SDS_P2;PMS_P1;PMS_P2;Temp;Humidity;BMP_temperature;BMP_pressure;BME280_temperature;BME280_humidity;BME280_pressure;Samples;Min_cycle;Max_cycle;Signal;HPM_P1;HPM_P2
2023/05/09 00:00:56;;;;;;;20.90;18.90;;;13.60;99.90;;;;;;4994986;28;20186;-76
2023/05/09 00:03:23;;;;;;;21.27;19.23;;;13.50;99.90;;;;;;4994321;28;20212;-75
2023/05/09 00:05:50;;;;;;;20.77;16.87;;;13.50;99.90;;;;;;4993756;28;20255;-76
2023/05/09 00:08:18;;;;;;;23.70;21.50;;;13.50;99.90;;;;;;4993795;28;20649;-76
2023/05/09 00:10:45;;;;;;;20.47;17.83;;;13.50;99.90;;;;;;4996389;28;20283;-76
2023/05/09 00:13:12;;;;;;;22.20;18.57;;;13.40;99.90;;;;;;4994052;28;20267;-76
2023/05/09 00:15:39;;;;;;;23.87;21.57;;;13.40;99.90;;;;;;4994501;28;20192;-76
2023/05/09 00:18:06;;;;;;;21.47;19.30;;;13.40;99.90;;;;;;4978186;28;20245;-75
2023/05/09 00:20:33;;;;;;;24.33;19.63;;;13.40;99.90;;;;;;4994363;28;20189;-76
2023/05/09 00:23:00;;;;;;;25.20;22.47;;;13.40;99.90;;;;;;4992466;28;20234;-76
2023/05/09 00:25:28;;;;;;;24.63;22.13;;;13.40;99.90;;;;;;4993177;28;20232;-76
2023/05/09 00:27:55;;;;;;;23.43;19.40;;;13.40;99.90;;;;;;4994442;28;20206;-76
2023/05/09 00:30:22;;;;;;;19.67;17.63;;;13.30;99.90;;;;;;4995870;28;20292;-77
2023/05/09 00:32:49;;;;;;;18.90;16.30;;;13.30;99.90;;;;;;4976512;28;20213;-75
2023/05/09 00:35:16;;;;;;;23.57;21.40;;;13.30;99.90;;;;;;4976746;28;20193;-75
2023/05/09 00:37:42;;;;;;;24.50;22.20;;;13.30;99.90;;;;;;4992599;28;20251;-76
2023/05/09 00:40:10;;;;;;;19.37;17.57;;;13.20;99.90;;;;;;4996782;28;20193;-76
2023/05/09 00:42:38;;;;;;;20.20;18.30;;;13.20;99.90;;;;;;4976890;28;20197;-76
2023/05/09 00:45:06;;;;;;;22.90;20.57;;;13.30;99.90;;;;;;4993791;28;20211;-75
2023/05/09 00:47:34;;;;;;;19.20;17.50;;;13.20;99.90;;;;;;4977372;28;20197;-76
2023/05/09 00:50:02;;;;;;;20.80;18.80;;;13.20;99.90;;;;;;4993801;28;20647;-76
2023/05/09 00:52:32;;;;;;;18.77;17.13;;;13.20;99.90;;;;;;4992938;28;20194;-76
2023/05/09 00:54:59;;;;;;;21.83;19.77;;;13.20;99.90;;;;;;4994358;28;20204;-76
2023/05/09 00:57:26;;;;;;;22.07;20.17;;;13.20;99.90;;;;;;4976958;28;20479;-76
2023/05/09 00:59:55;;;;;;;20.27;18.37;;;13.10;99.90;;;;;;4996634;28;20228;-76
2023/05/09 01:02:22;;;;;;;22.07;20.27;;;13.10;99.90;;;;;;4992442;28;20198;-76
2023/05/09 01:04:49;;;;;;;22.03;20.20;;;13.00;99.90;;;;;;4994487;28;20192;-76
2023/05/09 01:07:24;;;;;;;22.93;20.83;;;13.00;99.90;;;;;;4992887;28;20273;-76
2023/05/09 01:10:00;;;;;;;15.80;13.90;;;13.00;99.90;;;;;;4996870;28;20240;-76
2023/05/09 01:12:36;;;;;;;17.87;15.53;;;13.00;99.90;;;;;;4992313;28;20204;-76
2023/05/09 01:15:14;;;;;;;25.97;23.50;;;13.00;99.90;;;;;;4985483;28;20276;-75
2023/05/09 01:17:51;;;;;;;23.27;21.17;;;12.90;99.90;;;;;;4976347;28;20205;-76
2023/05/09 01:20:26;;;;;;;18.37;16.50;;;12.90;99.90;;;;;;4977803;28;20232;-76
2023/05/09 01:23:11;;;;;;;18.17;16.27;;;12.90;99.90;;;;;;4995622;28;20204;-75
2023/05/09 01:25:52;;;;;;;18.60;16.60;;;12.80;99.90;;;;;;4992872;28;20247;-76
2023/05/09 01:28:47;;;;;;;19.70;15.43;;;12.80;99.90;;;;;;4998297;28;20227;-76
2023/05/09 01:31:16;;;;;;;21.30;19.17;;;12.80;99.90;;;;;;4980141;28;20704;-75
2023/05/09 01:33:46;;;;;;;18.60;15.67;;;12.70;99.90;;;;;;4995525;28;20205;-75
2023/05/09 01:36:16;;;;;;;20.20;17.47;;;12.70;99.90;;;;;;5003278;28;20243;-76
2023/05/09 01:38:45;;;;;;;23.40;21.10;;;12.70;99.90;;;;;;4992941;28;20259;-76
2023/05/09 01:41:15;;;;;;;19.73;17.63;;;12.60;99.90;;;;;;5003580;28;20206;-76
2023/05/09 01:43:45;;;;;;;20.13;18.07;;;12.60;99.90;;;;;;4997168;28;20197;-75
2023/05/09 01:46:13;;;;;;;22.27;19.97;;;12.50;99.90;;;;;;5003081;28;20288;-77
2023/05/09 01:48:42;;;;;;;24.87;22.67;;;12.50;99.90;;;;;;4997050;28;20279;-75
2023/05/09 01:51:11;;;;;;;18.40;16.53;;;12.50;99.90;;;;;;4996228;28;20723;-76
2023/05/09 01:53:40;;;;;;;15.23;13.63;;;12.40;99.90;;;;;;4996561;28;20677;-75
2023/05/09 01:56:09;;;;;;;15.17;13.23;;;12.40;99.90;;;;;;4980847;28;20201;-76
2023/05/09 01:58:39;;;;;;;15.03;13.43;;;12.40;99.90;;;;;;4997915;28;20259;-76
2023/05/09 02:01:07;;;;;;;13.73;12.23;;;12.40;99.90;;;;;;4971204;28;20212;-75
2023/05/09 02:03:35;;;;;;;15.30;13.70;;;12.40;99.90;;;;;;4979130;28;20252;-76
2023/05/09 02:06:05;;;;;;;17.43;14.90;;;12.40;99.90;;;;;;4994410;28;20190;-76
2023/05/09 02:08:33;;;;;;;16.53;14.93;;;12.40;99.90;;;;;;4985653;28;20231;-77
2023/05/09 02:11:00;;;;;;;14.97;13.37;;;12.40;99.90;;;;;;4986440;28;20221;-76
2023/05/09 02:13:27;;;;;;;15.17;13.07;;;12.40;99.90;;;;;;4977843;28;20197;-76
2023/05/09 02:15:55;;;;;;;13.10;11.70;;;12.40;99.90;;;;;;4978298;28;20227;-76
2023/05/09 02:18:21;;;;;;;14.57;12.67;;;12.30;99.90;;;;;;4994464;28;20282;-76
2023/05/09 02:20:48;;;;;;;14.13;12.73;;;12.30;99.90;;;;;;4995342;28;20251;-76
2023/05/09 02:23:17;;;;;;;13.87;12.47;;;12.40;99.90;;;;;;4994774;28;20239;-76
2023/05/09 02:25:45;;;;;;;13.13;11.83;;;12.30;99.90;;;;;;4997429;28;20207;-78
2023/05/09 02:28:13;;;;;;;11.20;10.20;;;12.30;99.90;;;;;;4996749;28;20224;-75
2023/05/09 02:30:44;;;;;;;12.17;11.07;;;12.30;99.90;;;;;;4999071;28;20224;-76
2023/05/09 02:33:12;;;;;;;11.87;10.67;;;12.30;99.90;;;;;;4996326;28;20276;-76
2023/05/09 02:35:41;;;;;;;12.43;11.03;;;12.20;99.90;;;;;;4995293;28;20271;-77
2023/05/09 02:38:08;;;;;;;12.57;11.43;;;12.20;99.90;;;;;;4991433;28;20287;-76
2023/05/09 02:40:36;;;;;;;11.83;10.73;;;12.20;99.90;;;;;;5000289;28;20196;-76
2023/05/09 02:43:03;;;;;;;12.50;11.40;;;12.20;99.90;;;;;;4994737;28;20232;-75
2023/05/09 02:45:30;;;;;;;12.00;10.90;;;12.20;99.90;;;;;;4995804;28;20292;-77
2023/05/09 02:47:57;;;;;;;11.53;10.43;;;12.20;99.90;;;;;;4996683;28;20283;-77
2023/05/09 02:50:24;;;;;;;10.43;9.43;;;12.10;99.90;;;;;;4978858;28;20201;-78
2023/05/09 02:52:51;;;;;;;10.87;9.87;;;12.10;99.90;;;;;;4974198;28;20213;-77
2023/05/09 02:55:18;;;;;;;10.80;9.70;;;12.10;99.90;;;;;;4993226;28;20202;-76
2023/05/09 02:57:46;;;;;;;12.43;11.20;;;12.20;99.90;;;;;;4971193;28;20627;-78
2023/05/09 03:00:14;;;;;;;11.80;10.70;;;12.20;99.90;;;;;;4989256;28;20208;-77
2023/05/09 03:02:41;;;;;;;14.23;12.83;;;12.20;99.90;;;;;;4995046;28;20193;-78
2023/05/09 03:05:14;;;;;;;12.80;11.60;;;12.20;99.90;;;;;;4985649;28;20205;-78
2023/05/09 03:07:41;;;;;;;14.10;12.70;;;12.20;99.90;;;;;;4993572;28;20668;-78
2023/05/09 03:10:10;;;;;;;12.90;11.60;;;12.20;99.90;;;;;;5000353;28;20213;-78
2023/05/09 03:12:37;;;;;;;12.30;11.17;;;12.10;99.90;;;;;;4976522;28;20274;-77
2023/05/09 03:15:07;;;;;;;11.40;10.37;;;12.10;99.90;;;;;;4993333;28;20192;-77
2023/05/09 03:17:34;;;;;;;10.23;9.23;;;12.10;99.90;;;;;;4994209;28;20203;-76
2023/05/09 03:20:01;;;;;;;10.23;9.23;;;12.10;99.90;;;;;;4986423;28;20298;-77
2023/05/09 03:22:28;;;;;;;11.43;10.43;;;12.10;99.90;;;;;;4981446;28;20220;-77
2023/05/09 03:25:00;;;;;;;10.97;9.90;;;12.10;99.90;;;;;;4986905;28;20278;-77
2023/05/09 03:27:26;;;;;;;10.73;9.73;;;12.00;99.90;;;;;;4990940;28;20197;-76
2023/05/09 03:29:55;;;;;;;11.20;10.13;;;12.00;99.90;;;;;;4978396;28;20227;-77
2023/05/09 03:32:23;;;;;;;10.70;9.70;;;12.00;99.90;;;;;;4994285;28;20235;-77
2023/05/09 03:34:50;;;;;;;11.40;10.33;;;12.00;99.90;;;;;;4980930;28;20212;-76
2023/05/09 03:37:17;;;;;;;11.00;10.10;;;12.00;99.90;;;;;;4978488;28;20204;-77
2023/05/09 03:39:44;;;;;;;10.90;9.90;;;12.00;99.90;;;;;;4994320;28;20223;-77
2023/05/09 03:42:11;;;;;;;12.43;11.33;;;12.00;99.90;;;;;;4977764;28;20200;-76
2023/05/09 03:44:39;;;;;;;11.13;10.10;;;12.00;99.90;;;;;;4977804;28;20211;-76
2023/05/09 03:47:06;;;;;;;11.00;10.10;;;12.00;99.90;;;;;;4977829;28;20204;-76
2023/05/09 03:49:39;;;;;;;11.43;10.43;;;12.00;99.90;;;;;;4994565;28;20217;-77
2023/05/09 03:52:07;;;;;;;9.90;9.03;;;12.00;99.90;;;;;;4974311;28;20228;-76
2023/05/09 03:54:35;;;;;;;10.97;10.07;;;12.00;99.90;;;;;;4975327;28;20200;-76
2023/05/09 03:57:03;;;;;;;10.70;9.77;;;12.00;99.90;;;;;;4992063;28;20716;-77
2023/05/09 03:59:29;;;;;;;11.70;10.60;;;12.00;99.90;;;;;;4994281;28;20246;-76
2023/05/09 04:01:57;;;;;;;10.43;9.53;;;12.00;99.90;;;;;;4975541;28;20200;-76
2023/05/09 04:04:26;;;;;;;9.67;8.87;;;12.00;99.90;;;;;;4975909;28;20267;-76
2023/05/09 04:06:56;;;;;;;10.30;9.40;;;12.00;99.90;;;;;;4975868;28;20263;-77
2023/05/09 04:09:23;;;;;;;10.30;9.40;;;12.00;99.90;;;;;;4976953;28;20271;-76
2023/05/09 04:11:50;;;;;;;10.60;9.60;;;12.00;99.90;;;;;;4997217;28;20568;-76
2023/05/09 04:14:18;;;;;;;10.93;9.93;;;12.00;99.90;;;;;;4984968;28;20195;-76
2023/05/09 04:16:45;;;;;;;11.03;10.03;;;12.10;99.90;;;;;;4996195;28;20209;-77
2023/05/09 04:19:12;;;;;;;10.73;9.83;;;12.10;99.90;;;;;;4977277;28;20216;-76
2023/05/09 04:21:39;;;;;;;10.83;9.87;;;12.10;99.90;;;;;;4997077;28;20213;-76
2023/05/09 04:24:08;;;;;;;10.60;9.70;;;12.10;99.90;;;;;;4983158;28;20200;-77
2023/05/09 04:26:42;;;;;;;11.37;10.40;;;12.10;99.90;;;;;;4983163;28;20201;-76
2023/05/09 04:29:12;;;;;;;12.40;11.20;;;12.10;99.90;;;;;;4976105;28;20809;-77
2023/05/09 04:31:39;;;;;;;11.17;10.17;;;12.10;99.90;;;;;;4992203;28;20242;-76
2023/05/09 04:34:08;;;;;;;11.67;10.67;;;12.10;99.90;;;;;;4993467;28;20551;-77
2023/05/09 04:36:37;;;;;;;12.63;11.50;;;12.10;99.90;;;;;;4972222;28;20255;-76
2023/05/09 04:39:04;;;;;;;11.33;10.33;;;12.20;99.90;;;;;;4974184;28;20262;-77
2023/05/09 04:41:34;;;;;;;10.87;9.97;;;12.10;99.90;;;;;;4997384;28;20187;-76
2023/05/09 04:44:01;;;;;;;10.60;9.70;;;12.20;99.90;;;;;;4983029;28;20746;-77
2023/05/09 04:46:27;;;;;;;11.43;10.33;;;12.20;99.90;;;;;;4975481;28;20738;-76
2023/05/09 04:48:55;;;;;;;10.77;9.87;;;12.30;99.90;;;;;;4991309;28;20644;-76
2023/05/09 04:51:21;;;;;;;10.63;9.73;;;12.30;99.90;;;;;;4975165;28;20211;-77
2023/05/09 04:53:48;;;;;;;10.57;9.67;;;12.40;99.90;;;;;;4981144;28;20216;-76
2023/05/09 04:56:18;;;;;;;11.10;10.10;;;12.50;99.90;;;;;;4998432;28;20192;-77
2023/05/09 04:58:48;;;;;;;11.07;10.07;;;12.50;99.90;;;;;;4982363;28;20232;-77
2023/05/09 05:01:15;;;;;;;11.17;10.17;;;12.50;99.90;;;;;;4982518;28;20197;-77
2023/05/09 05:03:43;;;;;;;11.40;10.40;;;12.60;99.90;;;;;;4993907;28;20257;-77
2023/05/09 05:06:10;;;;;;;11.60;10.60;;;12.60;99.90;;;;;;4998306;28;20209;-76
2023/05/09 05:08:38;;;;;;;12.40;11.30;;;12.70;99.90;;;;;;4998309;28;20800;-76
2023/05/09 05:11:04;;;;;;;11.03;10.03;;;12.80;99.90;;;;;;4998414;28;20208;-77
2023/05/09 05:13:31;;;;;;;10.47;9.57;;;12.90;99.90;;;;;;5000089;28;20243;-76
2023/05/09 05:16:02;;;;;;;10.63;9.70;;;12.90;99.90;;;;;;4982442;28;20300;-76
2023/05/09 05:18:29;;;;;;;10.50;9.50;;;13.00;99.90;;;;;;4999891;28;20216;-77
2023/05/09 05:20:56;;;;;;;10.43;9.53;;;13.10;99.90;;;;;;4987475;28;20247;-77
2023/05/09 05:23:24;;;;;;;10.23;9.33;;;13.20;99.90;;;;;;4984397;28;20203;-77
2023/05/09 05:25:53;;;;;;;10.33;9.43;;;13.30;99.90;;;;;;4992514;28;20228;-76
2023/05/09 05:28:20;;;;;;;9.70;8.80;;;13.50;99.90;;;;;;4982532;28;20589;-77
2023/05/09 05:30:47;;;;;;;11.13;10.13;;;13.60;99.90;;;;;;4998530;28;20210;-77
2023/05/09 05:33:15;;;;;;;11.47;10.40;;;13.70;99.90;;;;;;4997730;28;20721;-76
2023/05/09 05:35:43;;;;;;;12.47;11.27;;;13.80;99.90;;;;;;4998217;28;20200;-77
2023/05/09 05:38:10;;;;;;;13.20;11.90;;;13.80;99.90;;;;;;4983413;28;20274;-77
2023/05/09 05:40:37;;;;;;;12.90;11.70;;;13.70;99.90;;;;;;4996228;28;20199;-77
2023/05/09 05:43:06;;;;;;;11.53;10.50;;;13.90;99.90;;;;;;4995208;28;20189;-79
2023/05/09 05:45:34;;;;;;;11.40;10.30;;;14.10;99.90;;;;;;5004204;28;20594;-77
2023/05/09 05:48:04;;;;;;;12.43;11.23;;;14.30;99.90;;;;;;4992762;28;20676;-77
2023/05/09 05:50:33;;;;;;;12.47;11.17;;;14.30;99.90;;;;;;4986832;28;20194;-77
2023/05/09 05:53:00;;;;;;;12.60;11.40;;;14.50;99.90;;;;;;4999192;28;20271;-78
2023/05/09 05:55:27;;;;;;;11.77;10.67;;;14.60;99.90;;;;;;5005125;28;20215;-77
2023/05/09 05:57:54;;;;;;;12.43;11.23;;;14.90;99.90;;;;;;4992265;28;20239;-78
2023/05/09 06:00:21;;;;;;;11.87;10.57;;;15.10;99.90;;;;;;5002147;28;20237;-78
2023/05/09 06:02:54;;;;;;;12.10;10.93;;;15.30;99.90;;;;;;5001401;28;20223;-78
2023/05/09 06:05:30;;;;;;;12.73;11.43;;;15.40;99.90;;;;;;4976852;28;20625;-78
2023/05/09 06:07:58;;;;;;;11.13;10.03;;;15.80;99.90;;;;;;4979883;28;20205;-77
2023/05/09 06:10:25;;;;;;;10.77;9.73;;;16.00;99.90;;;;;;4989363;28;20665;-81
2023/05/09 06:12:52;;;;;;;10.90;9.90;;;16.10;99.90;;;;;;4999993;28;20237;-79
2023/05/09 06:15:19;;;;;;;10.47;9.57;;;16.20;99.90;;;;;;4989034;28;20205;-81
2023/05/09 06:17:49;;;;;;;11.93;9.97;;;16.40;99.90;;;;;;4980944;28;20201;-78
2023/05/09 06:20:16;;;;;;;11.63;10.47;;;16.40;99.90;;;;;;4998501;28;20190;-81
2023/05/09 06:22:43;;;;;;;11.90;10.80;;;16.40;99.90;;;;;;4980780;28;20209;-79
2023/05/09 06:25:11;;;;;;;11.70;10.60;;;16.70;99.90;;;;;;4990506;28;20236;-80
2023/05/09 06:27:38;;;;;;;13.67;12.37;;;17.00;99.90;;;;;;4997347;28;20263;-81
2023/05/09 06:30:07;;;;;;;12.33;11.23;;;17.20;99.90;;;;;;4996535;28;20218;-81
2023/05/09 06:32:33;;;;;;;12.77;11.07;;;17.40;99.90;;;;;;4998416;28;20301;-80
2023/05/09 06:35:00;;;;;;;16.47;15.17;;;17.80;99.90;;;;;;4998654;28;20206;-78
2023/05/09 06:37:27;;;;;;;17.60;16.10;;;18.00;99.90;;;;;;4998134;28;20204;-79
2023/05/09 06:39:54;;;;;;;17.17;15.77;;;18.20;99.90;;;;;;4996546;28;20236;-81
2023/05/09 06:42:22;;;;;;;13.73;12.43;;;18.40;99.90;;;;;;4998729;28;20196;-80
2023/05/09 06:44:49;;;;;;;13.57;12.30;;;18.50;99.90;;;;;;4991196;28;20726;-78
2023/05/09 06:47:16;;;;;;;14.43;13.03;;;18.50;99.90;;;;;;4997920;28;20235;-80
2023/05/09 06:49:43;;;;;;;14.30;13.00;;;18.60;99.90;;;;;;4997676;28;20735;-80
2023/05/09 06:52:11;;;;;;;16.90;15.30;;;18.50;99.90;;;;;;4997618;28;20761;-80
2023/05/09 06:54:38;;;;;;;15.60;14.10;;;18.40;99.90;;;;;;4999339;28;20211;-80
2023/05/09 06:57:05;;;;;;;16.93;15.03;;;18.50;99.90;;;;;;4998762;28;20251;-79
2023/05/09 06:59:33;;;;;;;19.10;17.40;;;18.70;99.90;;;;;;4998197;28;20236;-78
2023/05/09 07:02:00;;;;;;;18.03;16.20;;;18.80;99.90;;;;;;4997857;28;20221;-79
2023/05/09 07:04:26;;;;;;;15.57;14.00;;;18.90;99.90;;;;;;4998709;28;20259;-79
2023/05/09 07:06:53;;;;;;;14.77;13.33;;;18.70;99.90;;;;;;4980526;28;20220;-80
2023/05/09 07:09:20;;;;;;;15.03;13.40;;;18.50;99.90;;;;;;4998118;28;20270;-80
2023/05/09 07:11:47;;;;;;;15.23;13.67;;;18.80;99.90;;;;;;5001957;28;20232;-79
2023/05/09 07:14:14;;;;;;;18.83;15.93;;;19.00;99.90;;;;;;4997756;28;20279;-81
2023/05/09 07:16:42;;;;;;;14.97;13.47;;;18.90;99.90;;;;;;4997368;28;20200;-79
2023/05/09 07:19:09;;;;;;;16.20;14.60;;;18.90;99.90;;;;;;4996889;28;20237;-82
2023/05/09 07:21:35;;;;;;;18.83;17.13;;;19.10;99.90;;;;;;4996677;28;20276;-81
2023/05/09 07:24:03;;;;;;;18.47;16.60;;;19.30;99.90;;;;;;5000565;28;20197;-79
2023/05/09 07:26:30;;;;;;;18.30;16.50;;;19.50;99.90;;;;;;4998501;28;20267;-79
2023/05/09 07:28:57;;;;;;;16.40;14.70;;;19.70;99.90;;;;;;5008662;28;20370;-79
2023/05/09 07:31:24;;;;;;;16.10;14.40;;;20.00;99.90;;;;;;4999592;28;20197;-80
2023/05/09 07:33:52;;;;;;;15.87;14.27;;;19.80;99.90;;;;;;4982312;28;20227;-79
2023/05/09 07:36:19;;;;;;;15.63;14.03;;;20.20;99.90;;;;;;4998367;28;20201;-78
2023/05/09 07:38:49;;;;;;;14.87;13.37;;;20.70;99.90;;;;;;4997819;28;20751;-80
2023/05/09 07:41:16;;;;;;;15.63;14.03;;;21.10;99.90;;;;;;4998235;28;20224;-78
2023/05/09 07:43:43;;;;;;;16.17;14.57;;;21.20;99.90;;;;;;5001444;28;20201;-77
2023/05/09 07:46:09;;;;;;;14.67;13.17;;;21.10;99.90;;;;;;4995359;28;20216;-77
2023/05/09 07:48:36;;;;;;;15.13;13.63;;;21.50;99.90;;;;;;4993386;28;20288;-76
2023/05/09 07:51:05;;;;;;;16.70;15.00;;;21.80;99.90;;;;;;4993996;28;20197;-76
2023/05/09 07:53:31;;;;;;;14.53;12.93;;;21.70;99.90;;;;;;4995754;28;20221;-76
2023/05/09 07:55:58;;;;;;;17.60;15.80;;;21.90;99.90;;;;;;4992988;28;20208;-76
2023/05/09 07:58:25;;;;;;;14.60;13.10;;;21.90;99.90;;;;;;4992398;28;20217;-76
2023/05/09 08:00:52;;;;;;;15.33;13.73;;;22.00;99.90;;;;;;4993353;28;20259;-76
2023/05/09 08:03:19;;;;;;;14.13;12.70;;;22.30;99.90;;;;;;4995949;28;20259;-77
2023/05/09 08:05:46;;;;;;;14.57;13.03;;;22.50;99.90;;;;;;4996499;28;20201;-77
2023/05/09 08:08:14;;;;;;;13.97;12.67;;;22.40;99.90;;;;;;4995637;28;20225;-77
2023/05/09 08:10:41;;;;;;;14.03;11.90;;;21.50;99.90;;;;;;4995106;28;20259;-77
2023/05/09 08:13:07;;;;;;;13.13;11.83;;;20.90;99.90;;;;;;4983376;28;20223;-80
2023/05/09 08:15:34;;;;;;;13.63;11.80;;;20.70;99.90;;;;;;5009652;28;20224;-81
2023/05/09 08:18:01;;;;;;;12.07;10.87;;;20.50;99.90;;;;;;5004234;28;20202;-81
2023/05/09 08:20:30;;;;;;;11.87;10.70;;;20.60;99.90;;;;;;4998405;28;20205;-81
2023/05/09 08:22:56;;;;;;;14.03;12.77;;;20.70;99.90;;;;;;5003349;28;20704;-82
2023/05/09 08:25:25;;;;;;;14.57;13.27;;;20.90;99.90;;;;;;5001378;28;20807;-81
2023/05/09 08:27:51;;;;;;;14.03;12.83;;;21.60;99.90;;;;;;4998351;28;20705;-80
2023/05/09 08:30:18;;;;;;;10.37;9.27;;;22.20;99.90;;;;;;4979342;28;20250;-80
2023/05/09 08:32:45;;;;;;;10.33;9.33;;;22.30;99.90;;;;;;4980126;28;20728;-80
2023/05/09 08:35:12;;;;;;;9.43;8.53;;;22.50;99.90;;;;;;4998723;28;20201;-80
2023/05/09 08:37:39;;;;;;;11.83;10.70;;;22.30;99.90;;;;;;4998119;28;20229;-81
2023/05/09 08:40:07;;;;;;;12.23;10.80;;;22.30;99.90;;;;;;4997348;28;20255;-81
2023/05/09 08:42:37;;;;;;;11.90;10.60;;;22.00;99.90;;;;;;4965078;28;20265;-79
2023/05/09 08:45:09;;;;;;;12.50;10.67;;;21.80;99.90;;;;;;5003445;28;20267;-81
2023/05/09 08:47:36;;;;;;;10.33;9.33;;;21.80;99.90;;;;;;4995861;28;20197;-79
2023/05/09 08:50:04;;;;;;;10.60;9.27;;;21.70;99.90;;;;;;5004778;28;20213;-79
2023/05/09 08:52:32;;;;;;;10.83;9.07;;;21.70;99.90;;;;;;4985984;28;20193;-80
2023/05/09 08:54:59;;;;;;;10.77;9.67;;;21.70;99.90;;;;;;5007388;28;20205;-78
2023/05/09 08:57:27;;;;;;;10.73;9.63;;;21.60;99.90;;;;;;5004408;28;20379;-79
2023/05/09 08:59:56;;;;;;;10.20;9.10;;;22.00;99.90;;;;;;4997707;28;20228;-78
2023/05/09 09:02:23;;;;;;;10.20;9.20;;;22.60;99.90;;;;;;5000753;28;20201;-78
2023/05/09 09:04:50;;;;;;;8.97;8.07;;;23.00;99.90;;;;;;5002678;28;20205;-78
2023/05/09 09:07:17;;;;;;;8.77;7.97;;;22.80;99.90;;;;;;4997879;28;20225;-79
2023/05/09 09:09:46;;;;;;;8.87;8.07;;;23.30;99.90;;;;;;4994574;28;20235;-78
2023/05/09 09:12:16;;;;;;;9.40;8.50;;;23.70;99.90;;;;;;5001820;28;20229;-78
2023/05/09 09:14:47;;;;;;;7.90;7.20;;;23.90;99.90;;;;;;5003897;28;20232;-78
2023/05/09 09:17:19;;;;;;;9.77;8.53;;;23.60;99.90;;;;;;4997357;28;20273;-78
2023/05/09 09:19:49;;;;;;;11.83;10.83;;;23.40;99.90;;;;;;5002983;28;20213;-78
2023/05/09 09:22:19;;;;;;;8.97;8.00;;;22.80;99.90;;;;;;5000963;28;20205;-79
2023/05/09 09:24:46;;;;;;;8.20;7.40;;;22.80;99.90;;;;;;5002043;28;20201;-78
2023/05/09 09:27:13;;;;;;;7.57;6.60;;;22.90;99.90;;;;;;5007198;28;20201;-78
2023/05/09 09:29:40;;;;;;;8.30;7.47;;;23.10;99.90;;;;;;5001972;28;20229;-78
2023/05/09 09:32:07;;;;;;;9.27;8.43;;;23.00;99.90;;;;;;5002184;28;20225;-79
2023/05/09 09:34:35;;;;;;;8.70;7.57;;;23.20;99.90;;;;;;5001303;28;20237;-78
2023/05/09 09:37:02;;;;;;;8.53;7.70;;;23.30;99.90;;;;;;5001420;28;20204;-78
2023/05/09 09:39:29;;;;;;;11.57;9.87;;;23.30;99.90;;;;;;5003727;28;20280;-79
2023/05/09 09:41:55;;;;;;;13.50;12.40;;;23.50;99.90;;;;;;4999913;28;20258;-79
2023/05/09 09:44:23;;;;;;;8.87;8.10;;;23.30;99.90;;;;;;5006036;28;20737;-79
2023/05/09 09:46:51;;;;;;;11.87;10.87;;;23.30;99.90;;;;;;5007596;28;20232;-81
2023/05/09 09:49:20;;;;;;;7.10;6.43;;;23.40;99.90;;;;;;5002775;28;20225;-78
2023/05/09 09:51:51;;;;;;;9.80;8.87;;;23.40;99.90;;;;;;5008383;28;20216;-79
2023/05/09 09:54:19;;;;;;;9.50;8.60;;;23.50;99.90;;;;;;5002699;28;20317;-78
2023/05/09 09:56:47;;;;;;;10.97;10.07;;;23.60;99.90;;;;;;5007588;28;20205;-80
2023/05/09 09:59:15;;;;;;;12.53;11.30;;;23.50;99.90;;;;;;5008160;28;20237;-81
2023/05/09 10:02:00;;;;;;;10.17;9.17;;;23.60;99.90;;;;;;5008653;28;20197;-81
2023/05/09 10:04:30;;;;;;;11.50;9.17;;;23.40;99.90;;;;;;5007343;28;20197;-80
2023/05/09 10:06:59;;;;;;;9.40;8.43;;;23.40;99.90;;;;;;5009349;28;20252;-81
2023/05/09 10:09:27;;;;;;;13.00;12.00;;;23.20;99.90;;;;;;5011586;28;20224;-82
2023/05/09 10:11:56;;;;;;;13.23;12.20;;;23.10;99.90;;;;;;5003927;28;20643;-82
2023/05/09 10:14:24;;;;;;;10.43;8.93;;;23.00;99.90;;;;;;4998826;28;20217;-81
2023/05/09 10:16:54;;;;;;;11.00;10.20;;;23.10;99.90;;;;;;4997503;28;20224;-82
2023/05/09 10:19:22;;;;;;;10.37;9.57;;;23.20;99.90;;;;;;5001196;28;20256;-81
2023/05/09 10:21:51;;;;;;;10.20;9.43;;;23.30;99.90;;;;;;5009452;28;20228;-82
2023/05/09 10:24:26;;;;;;;6.83;6.07;;;23.30;99.90;;;;;;4997292;28;20193;-80
2023/05/09 10:26:59;;;;;;;7.10;6.50;;;23.30;99.90;;;;;;5004959;28;20279;-81
2023/05/09 10:29:30;;;;;;;6.60;5.90;;;23.40;99.90;;;;;;5005489;28;20268;-80
2023/05/09 10:32:05;;;;;;;11.53;10.63;;;23.00;99.90;;;;;;4995025;28;20302;-81
2023/05/09 10:34:34;;;;;;;8.00;7.20;;;23.10;99.90;;;;;;5004584;28;20223;-80
2023/05/09 10:37:02;;;;;;;8.10;7.50;;;23.00;99.90;;;;;;5008329;28;20280;-82
2023/05/09 10:39:31;;;;;;;6.17;5.67;;;23.00;99.90;;;;;;4997397;28;20240;-80
2023/05/09 10:41:59;;;;;;;10.63;9.90;;;23.00;99.90;;;;;;5004663;28;20205;-78
2023/05/09 10:44:27;;;;;;;6.50;5.90;;;23.10;99.90;;;;;;5004373;28;20193;-82
2023/05/09 10:46:55;;;;;;;6.23;5.70;;;23.20;99.90;;;;;;5005191;28;20205;-82
2023/05/09 10:49:22;;;;;;;7.20;6.30;;;23.20;99.90;;;;;;5006193;28;20237;-81
2023/05/09 10:51:51;;;;;;;6.70;6.10;;;23.00;99.90;;;;;;5004789;28;20194;-81
2023/05/09 10:54:27;;;;;;;9.43;8.73;;;22.80;99.90;;;;;;4995315;28;20776;-81
2023/05/09 10:56:56;;;;;;;6.23;5.63;;;22.60;99.90;;;;;;4987776;28;20208;-81
2023/05/09 10:59:34;;;;;;;6.20;5.70;;;22.90;99.90;;;;;;5003443;28;20229;-79
2023/05/09 11:02:03;;;;;;;7.33;6.63;;;22.90;99.90;;;;;;4984935;28;20295;-79
2023/05/09 11:04:30;;;;;;;5.27;4.87;;;22.50;99.90;;;;;;4986252;28;20213;-79
2023/05/09 11:06:57;;;;;;;7.63;7.13;;;22.60;99.90;;;;;;4985617;28;20205;-79
2023/05/09 11:09:32;;;;;;;10.50;9.63;;;22.80;99.90;;;;;;5003963;28;20245;-78
2023/05/09 11:12:08;;;;;;;10.50;9.77;;;22.90;99.90;;;;;;5017326;22;20259;-82
2023/05/09 11:14:40;;;;;;;7.80;7.10;;;22.80;99.90;;;;;;5009312;28;20772;-82
2023/05/09 11:17:08;;;;;;;5.33;4.93;;;22.70;99.90;;;;;;4976421;28;20209;-82
2023/05/09 11:20:00;;;;;;;7.60;7.00;;;22.60;99.90;;;;;;4993571;28;20251;-82
2023/05/09 11:22:29;;;;;;;8.00;4.60;;;22.90;99.90;;;;;;4987111;28;20233;-81
2023/05/09 11:25:03;;;;;;;5.00;4.60;;;22.90;99.90;;;;;;5001838;28;20223;-83
2023/05/09 11:27:41;;;;;;;4.80;4.40;;;23.20;99.90;;;;;;4976601;28;20209;-82
2023/05/09 11:30:09;;;;;;;4.63;4.33;;;23.60;99.90;;;;;;4994318;28;20201;-82
2023/05/09 11:32:43;;;;;;;5.60;5.10;;;23.90;99.90;;;;;;4993538;28;20300;-82
2023/05/09 11:35:13;;;;;;;7.97;7.47;;;23.80;99.90;;;;;;4976747;28;20309;-82
2023/05/09 11:37:46;;;;;;;8.53;7.93;;;23.80;99.90;;;;;;4976390;28;20623;-82
2023/05/09 11:40:14;;;;;;;10.07;9.37;;;24.00;99.90;;;;;;4994218;28;20201;-81
2023/05/09 11:42:44;;;;;;;9.13;8.43;;;24.20;99.90;;;;;;4976519;28;20217;-81
2023/05/09 11:45:12;;;;;;;8.90;8.17;;;24.50;99.90;;;;;;4980257;28;20202;-82
2023/05/09 11:47:39;;;;;;;8.93;8.33;;;24.60;99.90;;;;;;4993684;28;20584;-82
2023/05/09 11:50:08;;;;;;;5.20;4.70;;;24.70;99.90;;;;;;4976210;28;20216;-82
2023/05/09 11:52:37;;;;;;;8.50;8.00;;;24.70;99.90;;;;;;4993325;28;20220;-82
2023/05/09 11:55:06;;;;;;;7.40;6.80;;;24.90;99.90;;;;;;4998412;28;20300;-82
2023/05/09 11:57:33;;;;;;;6.90;6.50;;;25.00;99.90;;;;;;4993483;28;20201;-80
2023/05/09 12:00:03;;;;;;;5.73;5.30;;;24.80;99.90;;;;;;4993548;28;20212;-82
2023/05/09 12:02:33;;;;;;;5.03;4.50;;;24.40;99.90;;;;;;4993005;28;20258;-82
2023/05/09 12:05:08;;;;;;;4.03;3.83;;;24.20;99.90;;;;;;4992788;28;20198;-81
2023/05/09 12:07:35;;;;;;;4.40;4.00;;;23.90;99.90;;;;;;4999115;28;20206;-82
2023/05/09 12:10:04;;;;;;;4.77;4.37;;;23.70;99.90;;;;;;4993657;28;20201;-81
2023/05/09 12:12:34;;;;;;;4.60;4.30;;;23.50;99.90;;;;;;4990086;28;20295;-82
2023/05/09 12:15:04;;;;;;;4.70;4.30;;;23.70;99.90;;;;;;4998227;28;20240;-82
2023/05/09 12:17:31;;;;;;;5.33;4.57;;;23.80;99.90;;;;;;4975812;28;20252;-82
2023/05/09 12:19:59;;;;;;;5.27;4.67;;;23.80;99.90;;;;;;4976005;28;20232;-82
2023/05/09 12:22:28;;;;;;;4.43;4.13;;;23.70;99.90;;;;;;4975761;28;20225;-84
2023/05/09 12:24:54;;;;;;;5.00;4.50;;;23.80;99.90;;;;;;4981819;28;20311;-82
2023/05/09 12:27:21;;;;;;;4.43;4.13;;;23.60;99.90;;;;;;4976810;28;20692;-82
2023/05/09 12:29:48;;;;;;;4.90;4.50;;;23.50;99.90;;;;;;4975513;28;20256;-82
2023/05/09 12:32:17;;;;;;;5.00;4.63;;;23.30;99.90;;;;;;4975502;28;20229;-83
2023/05/09 12:34:46;;;;;;;4.60;4.30;;;23.40;99.90;;;;;;4992859;28;20283;-82
2023/05/09 12:37:17;;;;;;;5.00;4.57;;;23.40;99.90;;;;;;4993561;28;20205;-82
2023/05/09 12:39:45;;;;;;;5.70;4.40;;;23.20;99.90;;;;;;4991116;28;20197;-83